Ginga — JJ4054 — position and weather

sailwx.info

Track history (hours):
 
Tides and Currents Weather Stations Pressure Air Temp Water Temp Dewpoint Dewpoint Depression Visibility Wind Speed Wind Dir Waves Ship Positions

Ginga

Last reported at 2014-Oct-21 07:21 UTC. Time now 2014-Oct-21 10:20 UTC.
Position N 34°39' E 135°09'.

Length 28 m; draft 1.6 m.

Type: Other ship. MMSI: 431301704.

Date/timePositionNaut miles runAvg speedWind from/ knotsBaromVisibWave heightAir tempDewpointWater temp
2014-Oct-21 07:21N 34°39' E 135°09'1114.3
2014-Oct-21 06:33N 34°29' E 135°04'6 3.7
2014-Oct-21 05:04N 34°24' E 135°01'815.5
2014-Oct-21 04:34N 34°31' E 135°06'18 2.2
2014-Oct-20 20:23N 34°40' E 134°47'1315.2
2014-Oct-20 19:33N 34°37' E 135°02'4 4.1
2014-Oct-20 18:33N 34°34' E 135°06'4 3.8
2014-Oct-20 17:33N 34°37' E 135°02'6 5.7
2014-Oct-20 16:34N 34°34' E 135°08'3 0.3
2014-Oct-20 05:33N 34°37' E 135°07'15 4.3
2014-Oct-20 02:09N 34°35' E 134°50'812.5
2014-Oct-20 01:33N 34°37' E 134°59'8 8.0
2014-Oct-20 00:33N 34°34' E 135°08'9 8.2
2014-Oct-19 23:28N 34°26' E 135°04'1212.7
2014-Oct-19 22:32N 34°15' E 134°59'1 1.3
2014-Oct-19 21:25N 34°16' E 134°58'1315.4
2014-Oct-19 20:34N 34°29' E 135°04'1111.4
2014-Oct-19 19:33N 34°39' E 135°09'0 0.0
2014-Oct-18 05:33N 34°39' E 135°10'11 7.8
2014-Oct-18 04:12N 34°36' E 134°57'4 6.0
2014-Oct-18 03:33N 34°35' E 135°02'4 3.8
2014-Oct-18 02:33N 34°38' E 134°58'9 2.8
2014-Oct-17 23:18N 34°39' E 135°09'912.0
2014-Oct-17 22:33N 34°38' E 134°59'5 5.5
2014-Oct-17 21:33N 34°35' E 135°05'6 1.9
2014-Oct-17 18:33N 34°38' E 134°58'6 5.9
2014-Oct-17 17:34N 34°35' E 135°05'5 5.1
2014-Oct-17 16:33N 34°39' E 135°09'0 0.0
2014-Oct-17 02:05N 34°39' E 135°09'611.4
2014-Oct-17 01:32N 34°37' E 135°02'1 1.2
2014-Oct-17 00:33N 34°36' E 135°03'1 1.2
2014-Oct-16 23:33N 34°38' E 135°03'5 0.8
2014-Oct-16 17:33N 34°37' E 134°57'9 8.8
2014-Oct-16 16:33N 34°35' E 135°08'5 4.7
2014-Oct-16 15:33N 34°39' E 135°09'0 0.0
2014-Oct-16 11:07N 34°39' E 135°09'5 8.9
2014-Oct-16 10:33N 34°34' E 135°09'12 5.7
2014-Oct-16 08:29N 34°24' E 135°02'1414.4
2014-Oct-16 07:32N 34°32' E 135°15'7 7.5
2014-Oct-16 06:33N 34°34' E 135°24'1 1.0
2014-Oct-16 05:32N 34°34' E 135°23'0 0.4
2014-Oct-16 04:32N 34°34' E 135°23'2 2.3
2014-Oct-16 03:30N 34°33' E 135°26'4 4.4
2014-Oct-16 02:29N 34°33' E 135°20'3 3.3
2014-Oct-16 01:33N 34°35' E 135°17'7 7.5
2014-Oct-16 00:33N 34°39' E 135°09'0 0.0
2014-Oct-15 02:03N 34°39' E 135°09'510.3
2014-Oct-15 01:33N 34°37' E 135°04'1 1.1
2014-Oct-15 00:33N 34°36' E 135°04'2 0.3
2014-Oct-14 18:29N 34°38' E 135°03'1 1.5
2014-Oct-14 17:33N 34°37' E 135°02'7 7.2
2014-Oct-14 16:33N 34°39' E 135°10'3 0.3
2014-Oct-14 05:34N 34°37' E 135°07'6 6.1
2014-Oct-14 04:32N 34°36' E 134°59'9 1.4
2014-Oct-13 22:12N 34°39' E 135°09'4 0.1
2014-Oct-12 08:08N 34°42' E 135°13'0 0.2
2014-Oct-12 07:33N 34°42' E 135°13'  
Track history (hours):
 
Tides and Currents Weather Stations Pressure Air Temp Water Temp Dewpoint Dewpoint Depression Visibility Wind Speed Wind Dir Waves Ship Positions

Ginga

Last reported at 2014-Oct-21 07:21 UTC. Time now 2014-Oct-21 10:20 UTC.
Position N 34°39' E 135°09'.

Length 28 m; draft 1.6 m.

Type: Other ship. MMSI: 431301704.

Date/timePositionNaut miles runAvg speedWind from/ knotsBaromVisibWave heightAir tempDewpointWater temp
2014-Oct-21 07:21N 34°39' E 135°09'1114.3
2014-Oct-21 06:33N 34°29' E 135°04'6 3.7
2014-Oct-21 05:04N 34°24' E 135°01'815.5
2014-Oct-21 04:34N 34°31' E 135°06'18 2.2
2014-Oct-20 20:23N 34°40' E 134°47'1315.2
2014-Oct-20 19:33N 34°37' E 135°02'4 4.1
2014-Oct-20 18:33N 34°34' E 135°06'4 3.8
2014-Oct-20 17:33N 34°37' E 135°02'6 5.7
2014-Oct-20 16:34N 34°34' E 135°08'3 0.3
2014-Oct-20 05:33N 34°37' E 135°07'15 4.3
2014-Oct-20 02:09N 34°35' E 134°50'812.5
2014-Oct-20 01:33N 34°37' E 134°59'8 8.0
2014-Oct-20 00:33N 34°34' E 135°08'9 8.2
2014-Oct-19 23:28N 34°26' E 135°04'1212.7
2014-Oct-19 22:32N 34°15' E 134°59'1 1.3
2014-Oct-19 21:25N 34°16' E 134°58'1315.4
2014-Oct-19 20:34N 34°29' E 135°04'1111.4
2014-Oct-19 19:33N 34°39' E 135°09'0 0.0
2014-Oct-18 05:33N 34°39' E 135°10'11 7.8
2014-Oct-18 04:12N 34°36' E 134°57'4 6.0
2014-Oct-18 03:33N 34°35' E 135°02'4 3.8
2014-Oct-18 02:33N 34°38' E 134°58'9 2.8
2014-Oct-17 23:18N 34°39' E 135°09'912.0
2014-Oct-17 22:33N 34°38' E 134°59'5 5.5
2014-Oct-17 21:33N 34°35' E 135°05'6 1.9
2014-Oct-17 18:33N 34°38' E 134°58'6 5.9
2014-Oct-17 17:34N 34°35' E 135°05'5 5.1
2014-Oct-17 16:33N 34°39' E 135°09'0 0.0
2014-Oct-17 02:05N 34°39' E 135°09'611.4
2014-Oct-17 01:32N 34°37' E 135°02'1 1.2
2014-Oct-17 00:33N 34°36' E 135°03'1 1.2
2014-Oct-16 23:33N 34°38' E 135°03'5 0.8
2014-Oct-16 17:33N 34°37' E 134°57'9 8.8
2014-Oct-16 16:33N 34°35' E 135°08'5 4.7
2014-Oct-16 15:33N 34°39' E 135°09'0 0.0
2014-Oct-16 11:07N 34°39' E 135°09'5 8.9
2014-Oct-16 10:33N 34°34' E 135°09'12 5.7
2014-Oct-16 08:29N 34°24' E 135°02'1414.4
2014-Oct-16 07:32N 34°32' E 135°15'7 7.5
2014-Oct-16 06:33N 34°34' E 135°24'1 1.0
2014-Oct-16 05:32N 34°34' E 135°23'0 0.4
2014-Oct-16 04:32N 34°34' E 135°23'2 2.3
2014-Oct-16 03:30N 34°33' E 135°26'4 4.4
2014-Oct-16 02:29N 34°33' E 135°20'3 3.3
2014-Oct-16 01:33N 34°35' E 135°17'7 7.5
2014-Oct-16 00:33N 34°39' E 135°09'0 0.0
2014-Oct-15 02:03N 34°39' E 135°09'510.3
2014-Oct-15 01:33N 34°37' E 135°04'1 1.1
2014-Oct-15 00:33N 34°36' E 135°04'2 0.3
2014-Oct-14 18:29N 34°38' E 135°03'1 1.5
2014-Oct-14 17:33N 34°37' E 135°02'7 7.2
2014-Oct-14 16:33N 34°39' E 135°10'3 0.3
2014-Oct-14 05:34N 34°37' E 135°07'6 6.1
2014-Oct-14 04:32N 34°36' E 134°59'9 1.4
2014-Oct-13 22:12N 34°39' E 135°09'4 0.1
2014-Oct-12 08:08N 34°42' E 135°13'0 0.2
2014-Oct-12 07:33N 34°42' E 135°13'  

Dump ship's entire track history